Flight Track Log - Related Links

Times and Time Zones

All times are in EDT time to prevent confusion due to time zone crossing. See the ABX902 flight status page for this flight to view local times or setup timezone preferences in your user account.

Time Position Orientation Groundspeed Altitude Reporting Facility
EDT Latitude Longitude Course Direction KTS MPH feet Rate Location/Type
Wed 11:16:16 PM 25.7833 -80.2856 79° East 154 177 700  Level Miami Center
Wed 11:17:14 PM 25.7928 -80.2328 79° East 203 234 2,200 1,726 Climbing Miami Center
Wed 11:17:29 PM 25.7994 -80.2167 65° Northeast 211 243 2,800 1,935 Climbing Miami Center
Wed 11:18:16 PM 25.8194 -80.1667 66° East 255 293 4,200 2,208 Climbing Miami Center
Wed 11:19:15 PM 25.8947 -80.1642 North 279 321 6,700 2,432 Climbing Miami Center
Wed 11:19:30 PM 25.9136 -80.1622 North 277 319 7,200 2,432 Climbing Miami Center
Wed 11:20:29 PM 25.9858 -80.1942 338° Northwest 290 334 9,700 1,932 Climbing Miami Center
Wed 11:21:28 PM 26.0622 -80.2381 333° Northwest 300 345 11,000 1,700 Climbing Miami Center
Wed 11:22:29 PM 26.1506 -80.2983 329° Northwest 329 379 13,100 2,350 Climbing Miami Center
Wed 11:23:28 PM 26.2411 -80.3589 329° Northwest 360 414 15,700 2,479 Climbing Miami Center
Wed 11:24:30 PM 26.3292 -80.4242 326° Northwest 375 432 18,100 2,350 Climbing Miami Center
Wed 11:25:28 PM 26.4239 -80.4894 328° Northwest 394 453 20,400 2,034 Climbing Miami Center
Wed 11:26:28 PM 26.5314 -80.5322 340° North 402 463 22,100 1,850 Climbing Miami Center
Wed 11:27:28 PM 26.6472 -80.5686 344° North 424 488 24,100 1,770 Climbing Miami Center
Wed 11:28:30 PM 26.7653 -80.6072 344° North 436 502 25,700 1,563 Climbing Miami Center
Wed 11:29:27 PM 26.8853 -80.6506 342° North 436 502 27,200 1,475 Climbing Miami Center
Wed 11:30:28 PM 27.0094 -80.6919 343° North 447 514 28,600 1,350 Climbing Miami Center
Wed 11:31:27 PM 27.1358 -80.7333 344° North 454 522 29,900 1,426 Climbing Miami Center
Wed 11:32:30 PM 27.2600 -80.7725 344° North 462 532 31,500 1,650 Climbing Miami Center
Wed 11:33:27 PM 27.3861 -80.8144 344° North 462 532 33,200 1,729 Climbing Miami Center
Wed 11:34:28 PM 27.5147 -80.8514 346° North 467 537 34,900 1,475 Climbing Miami Center
Wed 11:35:29 PM 27.6325 -80.8931 343° North 461 531 36,200 984 Climbing Miami Center
Wed 11:36:30 PM 27.7525 -80.9325 344° North 451 519 36,900 407 Climbing Miami Center
Wed 11:37:27 PM 27.8703 -80.9719 344° North 446 513 37,000  Climbing Miami Center
Wed 11:39:16 PM 28.0825 -81.0411 344° North 443 510 36,900 -36 Descending Jacksonville Center
Wed 11:40:15 PM 28.1978 -81.0792 344° North 443 510 36,900  Level Jacksonville Center
Wed 11:41:15 PM 28.3150 -81.1172 344° North 443 510 36,900  Level Jacksonville Center
Wed 11:42:15 PM 28.4242 -81.1600 341° North 453 521 36,900 50 Level Jacksonville Center
Wed 11:43:15 PM 28.5394 -81.1983 344° North 446 513 37,000  Climbing Jacksonville Center
Wed 11:44:15 PM 28.6569 -81.2389 343° North 441 507 36,900  Descending Jacksonville Center
Wed 11:45:15 PM 28.7764 -81.2772 344° North 441 507 37,000  Climbing Jacksonville Center
Wed 11:46:15 PM 28.8958 -81.3178 343° North 441 507 36,900 -50 Descending Jacksonville Center
Wed 11:47:15 PM 29.0172 -81.3564 344° North 441 507 36,900  Level Jacksonville Center
Wed 11:48:15 PM 29.1347 -81.3997 342° North 441 507 36,900 50 Level Jacksonville Center
Wed 11:49:15 PM 29.2667 -81.4453 343° North 441 507 37,000 50 Climbing Jacksonville Center
Wed 11:50:15 PM 29.3861 -81.4864 343° North 446 513 37,000  Level Jacksonville Center
Wed 11:51:15 PM 29.5097 -81.5275 344° North 446 513 37,000  Level Jacksonville Center
Wed 11:52:15 PM 29.6311 -81.5689 343° North 446 513 37,000  Level Jacksonville Center
Wed 11:53:15 PM 29.7528 -81.6103 344° North 446 513 37,000  Level Jacksonville Center
Wed 11:54:15 PM 29.8722 -81.6519 343° North 446 513 37,000  Level Jacksonville Center
Wed 11:55:15 PM 29.9936 -81.6933 344° North 446 513 37,000 -50 Level Jacksonville Center
Wed 11:56:15 PM 30.1025 -81.7281 345° North 446 513 36,900 -50 Descending Jacksonville Center
Wed 11:57:15 PM 30.2386 -81.7744 344° North 447 514 36,900  Level Jacksonville Center
Wed 11:58:15 PM 30.3600 -81.8164 343° North 452 520 36,900  Level Jacksonville Center
Wed 11:59:15 PM 30.4836 -81.8583 344° North 452 520 36,900  Level Jacksonville Center
Thu 12:00:15 AM 30.5967 -81.9056 340° North 466 536 36,900  Level Jacksonville Center
Thu 12:01:15 AM 30.7181 -81.9478 343° North 466 536 36,900  Level Jacksonville Center
Thu 12:02:15 AM 30.8417 -81.9925 343° North 466 536 36,900  Level Jacksonville Center
Thu 12:03:15 AM 30.9631 -82.0350 343° North 461 531 36,900  Level Jacksonville Center
Thu 12:04:15 AM 31.0867 -82.0800 343° North 461 531 36,900 31 Level Jacksonville Center
Thu 12:06:28 AM 31.3758 -82.1806 343° North 464 534 37,000 31 Climbing Atlanta Center
Thu 12:07:28 AM 31.4889 -82.2197 344° North 464 534 37,000  Level Atlanta Center
Thu 12:08:28 AM 31.6150 -82.2661 343° North 464 534 37,000  Level Atlanta Center
Thu 12:09:28 AM 31.7447 -82.3050 346° North 464 534 37,000  Level Atlanta Center
Thu 12:10:28 AM 31.8725 -82.3392 347° North 469 540 37,000  Level Atlanta Center
Thu 12:11:28 AM 32.0044 -82.3733 348° North 474 545 37,000  Level Atlanta Center
Thu 12:12:28 AM 32.1344 -82.4078 347° North 474 545 37,000  Level Atlanta Center
Thu 12:13:28 AM 32.2622 -82.4422 347° North 474 545 37,000  Level Atlanta Center
Thu 12:14:28 AM 32.3942 -82.4842 345° North 474 545 37,000  Level Atlanta Center
Thu 12:15:28 AM 32.5242 -82.5164 348° North 474 545 37,000  Level Atlanta Center
Thu 12:16:28 AM 32.6561 -82.5561 346° North 474 545 37,000  Level Atlanta Center
Thu 12:17:28 AM 32.7881 -82.5933 347° North 474 545 37,000  Level Atlanta Center
Thu 12:18:28 AM 32.9219 -82.6283 348° North 474 545 37,000  Level Atlanta Center
Thu 12:19:28 AM 33.0539 -82.6658 347° North 474 545 37,000  Level Atlanta Center
Thu 12:20:28 AM 33.1836 -82.7008 347° North 474 545 37,000  Level Atlanta Center
Thu 12:21:28 AM 33.3322 -82.7408 347° North 481 554 37,000  Level Atlanta Center
Thu 12:23:00 AM 33.5065 -82.7834 349° North  Level FlightAware Approximate
Thu 12:30:00 AM 34.3020 -82.9797 348° North  Level FlightAware Approximate
Thu 12:31:00 AM 34.4156 -83.0080 348° North  Level FlightAware Approximate
Thu 12:32:00 AM 34.5298 -83.0371 347° North  Level FlightAware Approximate
Thu 12:33:00 AM 34.6427 -83.0694 347° North  Level FlightAware Approximate
Thu 12:34:00 AM 34.7556 -83.1017 347° North  Level FlightAware Approximate
Thu 12:35:00 AM 34.8685 -83.1342 347° North  Level FlightAware Approximate
Thu 12:36:00 AM 34.9814 -83.1667 347° North  Level FlightAware Approximate
Thu 12:37:00 AM 35.0943 -83.1993 347° North  Level FlightAware Approximate
Thu 12:38:00 AM 35.2072 -83.2321 347° North  Level FlightAware Approximate
Thu 12:39:00 AM 35.3200 -83.2649 347° North  Level FlightAware Approximate
Thu 12:40:00 AM 35.4327 -83.2987 346° North  Level FlightAware Approximate
Thu 12:40:04 AM 35.7411 -83.4842 346° North 487 560 37,000  Level Indianapolis Center
Thu 12:41:00 AM 35.5451 -83.3338 346° North  Level FlightAware Approximate
Thu 12:41:05 AM 35.8533 -83.5239 344° North 476 548 37,000  Level Indianapolis Center
Thu 12:42:00 AM 35.6576 -83.3690 346° North  Level FlightAware Approximate
Thu 12:42:05 AM 35.9939 -83.5747 344° North 475 547 37,000  Level Indianapolis Center
Thu 12:43:00 AM 35.7701 -83.4038 346° North  Level FlightAware Approximate
Thu 12:43:06 AM 36.1186 -83.6197 344° North 470 541 37,000  Level Indianapolis Center
Thu 12:44:00 AM 35.8826 -83.4386 346° North  Level FlightAware Approximate
Thu 12:44:06 AM 36.2444 -83.6636 344° North 471 542 37,000  Level Indianapolis Center
Thu 12:45:00 AM 35.9951 -83.4736 346° North  Level FlightAware Approximate
Thu 12:45:06 AM 36.3700 -83.7078 344° North 471 542 37,000  Level Indianapolis Center
Thu 12:46:07 AM 36.4964 -83.7525 344° North 472 543 37,000  Level Indianapolis Center
Thu 12:47:07 AM 36.6172 -83.7978 343° North 477 549 37,000  Level Indianapolis Center
Thu 12:48:07 AM 36.7447 -83.8439 344° North 474 545 37,000  Level Indianapolis Center
Thu 12:49:08 AM 36.8728 -83.8897 344° North 476 548 37,000  Level Indianapolis Center
Thu 12:50:08 AM 37.0000 -83.9369 343° North 476 548 37,000  Level Indianapolis Center
Thu 12:51:08 AM 37.1256 -83.9847 343° North 471 542 37,000 -645 Level Indianapolis Center
Thu 12:52:09 AM 37.2517 -84.0314 344° North 470 541 35,700 -2,331 Descending Indianapolis Center
Thu 12:53:09 AM 37.3814 -84.0803 343° North 481 554 32,300 -3,100 Descending Indianapolis Center
Thu 12:54:09 AM 37.5119 -84.1272 344° North 483 556 29,500 -2,678 Descending Indianapolis Center
Thu 12:55:10 AM 37.6353 -84.1747 343° North 464 534 26,900 -2,132 Descending Indianapolis Center
Thu 12:56:10 AM 37.7533 -84.2269 341° North 449 517 25,200 -1,500 Descending Indianapolis Center
Thu 12:57:10 AM 37.8636 -84.2889 336° Northwest 432 497 23,900 -1,339 Descending Indianapolis Center
Thu 12:58:11 AM 37.9711 -84.3497 336° Northwest 423 487 22,500 -1,339 Descending Indianapolis Center
Thu 12:59:11 AM 38.0764 -84.4086 336° Northwest 413 475 21,200 -1,350 Descending Indianapolis Center
Thu 01:00:11 AM 38.1800 -84.4678 336° Northwest 407 468 19,800 -1,350 Descending Indianapolis Center
Thu 01:01:11 AM 38.2814 -84.5256 336° Northwest 398 458 18,500 -1,636 Descending Indianapolis Center
Thu 01:02:12 AM 38.3814 -84.5828 336° Northwest 393 452 16,500 -2,182 Descending Indianapolis Center
Thu 01:03:12 AM 38.4800 -84.6392 336° Northwest 388 447 14,100 -2,200 Descending Indianapolis Center
Thu 01:04:12 AM 38.5750 -84.6942 336° Northwest 375 432 12,100 -1,835 Descending Indianapolis Center
Thu 01:05:13 AM 38.6639 -84.7444 336° Northwest 360 414 10,400 -1,091 Descending Indianapolis Center
Thu 01:06:13 AM 38.7467 -84.7917 336° Northwest 322 371 9,900 -850 Descending Indianapolis Center
Thu 01:07:13 AM 38.8178 -84.8331 336° Northwest 284 327 8,700 -1,100 Descending Indianapolis Center
Thu 01:08:13 AM 38.8789 -84.8703 335° Northwest 244 281 7,700 -992 Descending Indianapolis Center
Thu 01:09:14 AM 38.9281 -84.8981 336° Northwest 200 230 6,700 -843 Descending Indianapolis Center
Thu 01:10:14 AM 38.9739 -84.9267 334° Northwest 188 216 6,000 -950 Descending Indianapolis Center
Thu 01:11:14 AM 39.0175 -84.9628 327° Northwest 187 215 4,800 -1,289 Descending Indianapolis Center
Thu 01:12:15 AM 39.0433 -84.9225 50° Northeast 178 205 3,400 -1,102 Descending Indianapolis Center
Thu 01:12:52 AM 39.0500 -84.8667 81° East 162 186 3,000 -433 Descending Cincinnati TRACON
Thu 01:13:52 AM 39.0500 -84.8167 90° East 157 181 2,700 -500 Descending Cincinnati TRACON
Thu 01:14:52 AM 39.0500 -84.7667 90° East 150 173 2,000 -714 Descending Cincinnati TRACON
Thu 01:15:58 AM 39.0500 -84.7167 90° East 119 137 1,200 -727 Descending Cincinnati TRACON
Thu 01:17:00 AM 39.0333 -84.6667 90° East  Level FlightAware Approximate
Thu 01:24:00 AM 39.0488 -84.6678 90° East  Level Estimated

Login

Don't have an account? Register now (free) for customized features, flight alerts, and more!